sensor_id;sensor_type;location;lat;lon;timestamp;pressure;altitude;pressure_sealevel;temperature;humidity
57562;BME280;43397;51.530;5.974;2023-04-24T00:01:10;74369.38;;;-145.90;46.00
57562;BME280;43397;51.530;5.974;2023-04-24T00:03:36;74377.50;;;-145.90;46.04
57562;BME280;43397;51.530;5.974;2023-04-24T00:06:01;74399.78;;;-145.90;46.63
57562;BME280;43397;51.530;5.974;2023-04-24T00:08:28;74503.09;;;-145.90;47.05
57562;BME280;43397;51.530;5.974;2023-04-24T00:10:54;74373.44;;;-145.90;45.91
57562;BME280;43397;51.530;5.974;2023-04-24T00:13:20;74391.66;;;-145.90;45.40
57562;BME280;43397;51.530;5.974;2023-04-24T00:15:45;74527.41;;;-145.90;46.45
57562;BME280;43397;51.530;5.974;2023-04-24T00:18:11;74460.56;;;-145.90;46.05
57562;BME280;43397;51.530;5.974;2023-04-24T00:20:37;74418.00;;;-145.90;45.46
57562;BME280;43397;51.530;5.974;2023-04-24T00:23:02;74539.56;;;-145.90;47.15
57562;BME280;43397;51.530;5.974;2023-04-24T00:25:29;74464.59;;;-145.90;46.05
57562;BME280;43397;51.530;5.974;2023-04-24T00:27:55;74525.38;;;-145.90;46.84
57562;BME280;43397;51.530;5.974;2023-04-24T00:30:21;74452.44;;;-145.90;45.71
57562;BME280;43397;51.530;5.974;2023-04-24T00:32:46;74472.72;;;-145.90;46.25
57562;BME280;43397;51.530;5.974;2023-04-24T00:35:12;74424.09;;;-145.90;45.31
57562;BME280;43397;51.530;5.974;2023-04-24T00:37:38;74484.88;;;-145.90;45.90
57562;BME280;43397;51.530;5.974;2023-04-24T00:40:05;74507.16;;;-145.90;45.92
57562;BME280;43397;51.530;5.974;2023-04-24T00:42:32;74464.59;;;-145.90;45.81
57562;BME280;43397;51.530;5.974;2023-04-24T00:44:58;74551.72;;;-145.90;46.17
57562;BME280;43397;51.530;5.974;2023-04-24T00:47:25;74509.19;;;-145.90;45.88
57562;BME280;43397;51.530;5.974;2023-04-24T00:49:50;74444.34;;;-145.90;44.86
57562;BME280;43397;51.530;5.974;2023-04-24T00:52:16;74509.19;;;-145.90;45.42
57562;BME280;43397;51.530;5.974;2023-04-24T00:54:42;74527.41;;;-145.90;45.80
57562;BME280;43397;51.530;5.974;2023-04-24T00:57:07;74539.56;;;-145.90;45.71
57562;BME280;43397;51.530;5.974;2023-04-24T00:59:34;74539.56;;;-145.90;45.44
57562;BME280;43397;51.530;5.974;2023-04-24T01:02:00;74604.41;;;-145.90;46.70
57562;BME280;43397;51.530;5.974;2023-04-24T01:04:26;74521.34;;;-145.90;45.39
57562;BME280;43397;51.530;5.974;2023-04-24T01:06:52;74470.69;;;-145.90;44.97
57562;BME280;43397;51.530;5.974;2023-04-24T01:09:21;74486.91;;;-145.90;44.66
57562;BME280;43397;51.530;5.974;2023-04-24T01:11:47;74478.78;;;-145.90;45.08
57562;BME280;43397;51.530;5.974;2023-04-24T01:14:13;74509.19;;;-145.90;45.27
57562;BME280;43397;51.530;5.974;2023-04-24T01:16:40;74598.34;;;-145.90;46.69
57562;BME280;43397;51.530;5.974;2023-04-24T01:19:06;74478.78;;;-145.90;44.93
57562;BME280;43397;51.530;5.974;2023-04-24T01:21:34;74578.06;;;-145.90;46.20
57562;BME280;43397;51.530;5.974;2023-04-24T01:24:03;74588.19;;;-145.90;46.38
57562;BME280;43397;51.530;5.974;2023-04-24T01:26:29;74531.47;;;-145.90;45.82
57562;BME280;43397;51.530;5.974;2023-04-24T01:28:55;74671.28;;;-145.90;47.29
57562;BME280;43397;51.530;5.974;2023-04-24T01:31:21;74655.06;;;-145.90;47.47
57562;BME280;43397;51.530;5.974;2023-04-24T01:33:47;74486.91;;;-145.90;45.39
57562;BME280;43397;51.530;5.974;2023-04-24T01:36:13;74480.81;;;-145.90;44.97
57562;BME280;43397;51.530;5.974;2023-04-24T01:38:39;74624.66;;;-145.90;46.94
57562;BME280;43397;51.530;5.974;2023-04-24T01:41:07;74486.91;;;-145.90;45.35
57562;BME280;43397;51.530;5.974;2023-04-24T01:43:33;74565.91;;;-145.90;46.12
57562;BME280;43397;51.530;5.974;2023-04-24T01:45:59;74503.09;;;-145.90;44.91
57562;BME280;43397;51.530;5.974;2023-04-24T01:48:24;74505.13;;;-145.90;44.99
57562;BME280;43397;51.530;5.974;2023-04-24T01:50:50;74559.84;;;-145.90;45.78
57562;BME280;43397;51.530;5.974;2023-04-24T01:53:16;74588.19;;;-145.90;46.12
57562;BME280;43397;51.530;5.974;2023-04-24T01:55:42;74586.19;;;-145.90;46.25
57562;BME280;43397;51.530;5.974;2023-04-24T01:58:09;74490.94;;;-145.90;45.09
57562;BME280;43397;51.530;5.974;2023-04-24T02:00:34;74547.69;;;-145.90;45.96
57562;BME280;43397;51.530;5.974;2023-04-24T02:03:00;74567.94;;;-145.90;46.31
57562;BME280;43397;51.530;5.974;2023-04-24T02:05:26;74596.31;;;-145.90;46.31
57562;BME280;43397;51.530;5.974;2023-04-24T02:07:51;74576.03;;;-145.90;46.44
57562;BME280;43397;51.530;5.974;2023-04-24T02:10:17;74533.50;;;-145.90;45.60
57562;BME280;43397;51.530;5.974;2023-04-24T02:12:43;74420.03;;;-145.90;44.03
57562;BME280;43397;51.530;5.974;2023-04-24T02:15:10;74424.09;;;-145.90;44.20
57562;BME280;43397;51.530;5.974;2023-04-24T02:17:36;74533.50;;;-145.90;45.42
57562;BME280;43397;51.530;5.974;2023-04-24T02:20:01;74486.91;;;-145.90;45.20
57562;BME280;43397;51.530;5.974;2023-04-24T02:22:27;74511.22;;;-145.90;45.38
57562;BME280;43397;51.530;5.974;2023-04-24T02:24:53;74480.81;;;-145.90;45.31
57562;BME280;43397;51.530;5.974;2023-04-24T02:27:18;74572.00;;;-145.90;46.63
57562;BME280;43397;51.530;5.974;2023-04-24T02:29:44;74612.50;;;-145.90;47.20
57562;BME280;43397;51.530;5.974;2023-04-24T02:32:11;74685.44;;;-145.90;47.77
57562;BME280;43397;51.530;5.974;2023-04-24T02:34:37;74507.16;;;-145.90;45.39
57562;BME280;43397;51.530;5.974;2023-04-24T02:37:02;74569.97;;;-145.90;46.58
57562;BME280;43397;51.530;5.974;2023-04-24T02:39:28;74525.38;;;-145.90;45.56
57562;BME280;43397;51.530;5.974;2023-04-24T02:41:54;74480.81;;;-145.90;45.12
57562;BME280;43397;51.530;5.974;2023-04-24T02:44:19;74499.06;;;-145.90;44.69
57562;BME280;43397;51.530;5.974;2023-04-24T02:46:45;74547.69;;;-145.90;45.90
57562;BME280;43397;51.530;5.974;2023-04-24T02:49:12;74559.84;;;-145.90;45.59
57562;BME280;43397;51.530;5.974;2023-04-24T02:51:37;74559.84;;;-145.90;45.49
57562;BME280;43397;51.530;5.974;2023-04-24T02:54:03;74590.22;;;-145.90;45.96
57562;BME280;43397;51.530;5.974;2023-04-24T02:56:29;74559.84;;;-145.90;45.61
57562;BME280;43397;51.530;5.974;2023-04-24T02:58:54;74572.00;;;-145.90;45.53
57562;BME280;43397;51.530;5.974;2023-04-24T03:01:20;74509.19;;;-145.90;44.81
57562;BME280;43397;51.530;5.974;2023-04-24T03:03:46;74535.53;;;-145.90;45.26
57562;BME280;43397;51.530;5.974;2023-04-24T03:06:13;74547.69;;;-145.90;45.45
57562;BME280;43397;51.530;5.974;2023-04-24T03:08:38;74576.03;;;-145.90;45.73
57562;BME280;43397;51.530;5.974;2023-04-24T03:11:04;74549.69;;;-145.90;45.61
57562;BME280;43397;51.530;5.974;2023-04-24T03:13:30;74543.63;;;-145.90;45.42
57562;BME280;43397;51.530;5.974;2023-04-24T03:15:55;74533.50;;;-145.90;44.96
57562;BME280;43397;51.530;5.974;2023-04-24T03:18:21;74545.66;;;-145.90;44.55
57562;BME280;43397;51.530;5.974;2023-04-24T03:20:47;74574.00;;;-145.90;45.88
57562;BME280;43397;51.530;5.974;2023-04-24T03:23:14;74622.66;;;-145.90;46.17
57562;BME280;43397;51.530;5.974;2023-04-24T03:25:39;74559.84;;;-145.90;45.37
57562;BME280;43397;51.530;5.974;2023-04-24T03:28:05;74624.66;;;-145.90;45.95
57562;BME280;43397;51.530;5.974;2023-04-24T03:30:31;74620.63;;;-145.90;45.79
57562;BME280;43397;51.530;5.974;2023-04-24T03:32:56;74543.63;;;-145.90;44.80
57562;BME280;43397;51.530;5.974;2023-04-24T03:35:22;74553.75;;;-145.90;44.71
57562;BME280;43397;51.530;5.974;2023-04-24T03:37:48;74533.50;;;-145.90;44.26
57562;BME280;43397;51.530;5.974;2023-04-24T03:40:15;74644.94;;;-145.90;45.93
57562;BME280;43397;51.530;5.974;2023-04-24T03:42:41;74677.34;;;-145.90;46.42
57562;BME280;43397;51.530;5.974;2023-04-24T03:45:08;74598.34;;;-145.90;45.72
57562;BME280;43397;51.530;5.974;2023-04-24T03:47:34;74661.13;;;-145.90;46.36
57562;BME280;43397;51.530;5.974;2023-04-24T03:49:59;74549.69;;;-145.90;44.88
57562;BME280;43397;51.530;5.974;2023-04-24T03:52:25;74610.50;;;-145.90;45.83
57562;BME280;43397;51.530;5.974;2023-04-24T03:54:51;74681.41;;;-145.90;46.91
57562;BME280;43397;51.530;5.974;2023-04-24T03:57:18;74602.38;;;-145.90;45.07
57562;BME280;43397;51.530;5.974;2023-04-24T03:59:44;74578.06;;;-145.90;45.31
57562;BME280;43397;51.530;5.974;2023-04-24T04:02:10;74642.91;;;-145.90;45.94
57562;BME280;43397;51.530;5.974;2023-04-24T04:04:35;74709.78;;;-145.90;46.47
57562;BME280;43397;51.530;5.974;2023-04-24T04:07:01;74632.78;;;-145.90;45.54
57562;BME280;43397;51.530;5.974;2023-04-24T04:09:27;74622.66;;;-145.90;45.12
57562;BME280;43397;51.530;5.974;2023-04-24T04:11:52;74732.06;;;-145.90;46.78
57562;BME280;43397;51.530;5.974;2023-04-24T04:14:19;74725.97;;;-145.90;46.86
57562;BME280;43397;51.530;5.974;2023-04-24T04:16:45;74665.19;;;-145.90;45.96
57562;BME280;43397;51.530;5.974;2023-04-24T04:19:11;74659.13;;;-145.90;45.73
57562;BME280;43397;51.530;5.974;2023-04-24T04:21:36;74657.09;;;-145.90;45.69
57562;BME280;43397;51.530;5.974;2023-04-24T04:24:02;74600.34;;;-145.90;45.01
57562;BME280;43397;51.530;5.974;2023-04-24T04:26:28;74584.16;;;-145.90;44.43
57562;BME280;43397;51.530;5.974;2023-04-24T04:28:53;74636.81;;;-145.90;45.61
57562;BME280;43397;51.530;5.974;2023-04-24T04:31:20;74638.84;;;-145.90;45.36
57562;BME280;43397;51.530;5.974;2023-04-24T04:33:46;74687.47;;;-145.90;46.23
57562;BME280;43397;51.530;5.974;2023-04-24T04:36:12;74588.19;;;-145.90;44.64
57562;BME280;43397;51.530;5.974;2023-04-24T04:38:37;74505.13;;;-145.90;44.00
57562;BME280;43397;51.530;5.974;2023-04-24T04:41:03;74612.50;;;-145.90;45.47
57562;BME280;43397;51.530;5.974;2023-04-24T07:20:24;74257.94;;;-145.90;41.52
57562;BME280;43397;51.530;5.974;2023-04-24T07:22:49;74253.91;;;-145.90;41.30
57562;BME280;43397;51.530;5.974;2023-04-24T07:25:15;74189.06;;;-145.90;40.28
57562;BME280;43397;51.530;5.974;2023-04-24T07:27:41;73950.00;;;-145.90;58.96
57562;BME280;43397;51.530;5.974;2023-04-24T07:30:07;73889.25;;;-145.90;38.74
57562;BME280;43397;51.530;5.974;2023-04-24T07:32:33;73992.56;;;-145.90;38.67
57562;BME280;43397;51.530;5.974;2023-04-24T07:34:58;74136.41;;;-145.90;39.49
57562;BME280;43397;51.530;5.974;2023-04-24T07:37:25;74154.63;;;-145.90;38.83
57562;BME280;43397;51.530;5.974;2023-04-24T07:39:51;73245.09;;;-145.90;34.79
57562;BME280;43397;51.530;5.974;2023-04-24T07:42:17;73382.81;;;-145.90;31.87
57562;BME280;43397;51.530;5.974;2023-04-24T07:44:42;73453.72;;;-145.90;31.55
57562;BME280;43397;51.530;5.974;2023-04-24T07:47:08;73552.97;;;-145.90;32.36
57562;BME280;43397;51.530;5.974;2023-04-24T07:49:34;73654.25;;;-145.90;33.42
57562;BME280;43397;51.530;5.974;2023-04-24T07:51:59;73808.22;;;-145.90;34.38
57562;BME280;43397;51.530;5.974;2023-04-24T07:54:26;73739.34;;;-145.90;33.95
57562;BME280;43397;51.530;5.974;2023-04-24T07:56:52;73889.25;;;-145.90;35.04
57562;BME280;43397;51.530;5.974;2023-04-24T07:59:18;74006.75;;;-145.90;36.39
57562;BME280;43397;51.530;5.974;2023-04-24T08:01:43;74047.25;;;-145.90;36.23
57562;BME280;43397;51.530;5.974;2023-04-24T08:04:09;73948.00;;;-145.90;35.42
57562;BME280;43397;51.530;5.974;2023-04-24T08:06:35;74134.38;;;-145.90;37.31
57562;BME280;43397;51.530;5.974;2023-04-24T08:09:00;74243.78;;;-145.90;38.47
57562;BME280;43397;51.530;5.974;2023-04-24T08:11:27;74189.06;;;-145.90;37.46
57562;BME280;43397;51.530;5.974;2023-04-24T08:13:53;74369.38;;;-145.90;39.46
57562;BME280;43397;51.530;5.974;2023-04-24T08:16:19;74385.59;;;-145.90;38.95
57562;BME280;43397;51.530;5.974;2023-04-24T08:18:44;74367.34;;;-145.90;39.05
57562;BME280;43397;51.530;5.974;2023-04-24T08:21:10;74300.50;;;-145.90;38.39
57562;BME280;43397;51.530;5.974;2023-04-24T08:23:36;74237.69;;;-145.90;37.43
57562;BME280;43397;51.530;5.974;2023-04-24T08:26:01;74302.53;;;-145.90;37.98
57562;BME280;43397;51.530;5.974;2023-04-24T08:28:28;74345.06;;;-145.90;38.45
57562;BME280;43397;51.530;5.974;2023-04-24T08:30:54;74312.66;;;-145.90;38.04
57562;BME280;43397;51.530;5.974;2023-04-24T08:33:20;74343.03;;;-145.90;38.14
57562;BME280;43397;51.530;5.974;2023-04-24T08:35:45;74351.16;;;-145.90;38.03
57562;BME280;43397;51.530;5.974;2023-04-24T08:38:11;74468.66;;;-145.90;39.87
57562;BME280;43397;51.530;5.974;2023-04-24T08:40:37;74369.38;;;-145.90;38.58
57562;BME280;43397;51.530;5.974;2023-04-24T08:43:03;74326.84;;;-145.90;38.43
57562;BME280;43397;51.530;5.974;2023-04-24T08:45:32;74298.47;;;-145.90;38.05
57562;BME280;43397;51.530;5.974;2023-04-24T08:47:58;74276.19;;;-145.90;37.68
57562;BME280;43397;51.530;5.974;2023-04-24T08:50:25;74430.16;;;-145.90;39.52
57562;BME280;43397;51.530;5.974;2023-04-24T08:52:52;74310.63;;;-145.90;38.66
57562;BME280;43397;51.530;5.974;2023-04-24T08:55:18;74276.19;;;-145.90;37.79
57562;BME280;43397;51.530;5.974;2023-04-24T08:57:45;74389.63;;;-145.90;38.73
57562;BME280;43397;51.530;5.974;2023-04-24T09:00:11;74426.09;;;-145.90;39.46
57562;BME280;43397;51.530;5.974;2023-04-24T09:02:41;74407.88;;;-145.90;38.83
57562;BME280;43397;51.530;5.974;2023-04-24T09:05:08;74440.28;;;-145.90;39.18
57562;BME280;43397;51.530;5.974;2023-04-24T09:07:35;74369.38;;;-145.90;38.57
57562;BME280;43397;51.530;5.974;2023-04-24T09:10:01;74446.38;;;-145.90;39.53
57562;BME280;43397;51.530;5.974;2023-04-24T09:12:27;74490.94;;;-145.90;39.76
57562;BME280;43397;51.530;5.974;2023-04-24T09:14:53;74513.22;;;-145.90;40.14
57562;BME280;43397;51.530;5.974;2023-04-24T09:17:20;74379.50;;;-145.90;38.39
57562;BME280;43397;51.530;5.974;2023-04-24T09:19:47;74389.63;;;-145.90;38.21
57562;BME280;43397;51.530;5.974;2023-04-24T09:22:12;74474.72;;;-145.90;39.21
57562;BME280;43397;51.530;5.974;2023-04-24T09:24:38;74567.94;;;-145.90;40.51
57562;BME280;43397;51.530;5.974;2023-04-24T09:27:04;74580.09;;;-145.90;40.37
57562;BME280;43397;51.530;5.974;2023-04-24T09:29:30;74606.44;;;-145.90;40.44
57562;BME280;43397;51.530;5.974;2023-04-24T09:31:55;74616.56;;;-145.90;40.75
57562;BME280;43397;51.530;5.974;2023-04-24T09:34:22;74624.66;;;-145.90;40.98
57562;BME280;43397;51.530;5.974;2023-04-24T09:36:50;74490.94;;;-145.90;38.32
57562;BME280;43397;51.530;5.974;2023-04-24T09:39:16;74464.59;;;-145.90;38.89
57562;BME280;43397;51.530;5.974;2023-04-24T09:41:46;74537.53;;;-145.90;39.26
57562;BME280;43397;51.530;5.974;2023-04-24T09:44:13;74551.72;;;-145.90;39.67
57562;BME280;43397;51.530;5.974;2023-04-24T09:46:40;74541.59;;;-145.90;39.29
57562;BME280;43397;51.530;5.974;2023-04-24T09:49:13;74545.66;;;-145.90;38.90
57562;BME280;43397;51.530;5.974;2023-04-24T09:51:39;74547.69;;;-145.90;39.26
57562;BME280;43397;51.530;5.974;2023-04-24T09:54:14;74665.19;;;-145.90;40.70
57562;BME280;43397;51.530;5.974;2023-04-24T09:56:42;74529.44;;;-145.90;39.27
57562;BME280;43397;51.530;5.974;2023-04-24T09:59:07;74318.72;;;-145.90;37.03
57562;BME280;43397;51.530;5.974;2023-04-24T10:01:33;74339.00;;;-145.90;37.24
57562;BME280;43397;51.530;5.974;2023-04-24T10:03:59;74533.50;;;-145.90;39.64
57562;BME280;43397;51.530;5.974;2023-04-24T10:06:31;74300.50;;;-145.90;37.01
57562;BME280;43397;51.530;5.974;2023-04-24T10:08:57;74365.31;;;-145.90;37.75
57562;BME280;43397;51.530;5.974;2023-04-24T10:11:24;74160.72;;;-145.90;36.17
57562;BME280;43397;51.530;5.974;2023-04-24T10:13:51;74197.16;;;-145.90;35.42
57562;BME280;43397;51.530;5.974;2023-04-24T10:16:17;74136.41;;;-145.90;35.15
57562;BME280;43397;51.530;5.974;2023-04-24T10:18:43;74286.31;;;-145.90;35.46
57562;BME280;43397;51.530;5.974;2023-04-24T10:21:10;74199.19;;;-145.90;34.32
57562;BME280;43397;51.530;5.974;2023-04-24T10:23:35;74227.56;;;-145.90;34.27
57562;BME280;43397;51.530;5.974;2023-04-24T10:26:01;74353.16;;;-145.90;34.80
57562;BME280;43397;51.530;5.974;2023-04-24T10:28:30;74357.22;;;-145.90;34.75
57562;BME280;43397;51.530;5.974;2023-04-24T10:30:58;74586.19;;;-145.90;36.23
57562;BME280;43397;51.530;5.974;2023-04-24T10:33:24;74466.63;;;-145.90;36.13
57562;BME280;43397;51.530;5.974;2023-04-24T10:35:51;74450.44;;;-145.90;35.97
57562;BME280;43397;51.530;5.974;2023-04-24T10:38:21;74426.09;;;-145.90;35.68
57562;BME280;43397;51.530;5.974;2023-04-24T10:40:48;74304.53;;;-145.90;35.04
57562;BME280;43397;51.530;5.974;2023-04-24T10:43:16;74320.75;;;-145.90;35.33
57562;BME280;43397;51.530;5.974;2023-04-24T10:46:00;74290.38;;;-145.90;35.06
57562;BME280;43397;51.530;5.974;2023-04-24T10:48:26;74213.38;;;-145.90;34.58
57562;BME280;43397;51.530;5.974;2023-04-24T10:50:53;74156.66;;;-145.90;34.36
57562;BME280;43397;51.530;5.974;2023-04-24T10:53:20;74249.84;;;-145.90;34.77
57562;BME280;43397;51.530;5.974;2023-04-24T10:55:47;74251.88;;;-145.90;34.46
57562;BME280;43397;51.530;5.974;2023-04-24T10:58:14;74217.44;;;-145.90;33.66
57562;BME280;43397;51.530;5.974;2023-04-24T11:00:40;74197.16;;;-145.90;33.37
57562;BME280;43397;51.530;5.974;2023-04-24T11:03:22;74448.41;;;-145.90;34.49
57562;BME280;43397;51.530;5.974;2023-04-24T11:05:50;74377.50;;;-145.90;34.64
57562;BME280;43397;51.530;5.974;2023-04-24T11:08:24;74426.09;;;-145.90;34.70
57562;BME280;43397;51.530;5.974;2023-04-24T11:10:55;74450.44;;;-145.90;35.38
57562;BME280;43397;51.530;5.974;2023-04-24T11:13:24;74369.38;;;-145.90;34.84
57562;BME280;43397;51.530;5.974;2023-04-24T11:16:14;74371.41;;;-145.90;33.91
57562;BME280;43397;51.530;5.974;2023-04-24T11:18:43;74484.88;;;-145.90;34.46
57562;BME280;43397;51.530;5.974;2023-04-24T11:21:12;74525.38;;;-145.90;34.53
57562;BME280;43397;51.530;5.974;2023-04-24T11:23:38;74628.72;;;-145.90;35.09
57562;BME280;43397;51.530;5.974;2023-04-24T11:26:10;74614.53;;;-145.90;35.28
57562;BME280;43397;51.530;5.974;2023-04-24T11:28:36;74655.06;;;-145.90;35.02
57562;BME280;43397;51.530;5.974;2023-04-24T11:31:35;74468.66;;;-145.90;34.35
57562;BME280;43397;51.530;5.974;2023-04-24T11:34:06;74513.22;;;-145.90;34.51
57562;BME280;43397;51.530;5.974;2023-04-24T11:36:32;74630.75;;;-145.90;35.72
57562;BME280;43397;51.530;5.974;2023-04-24T11:38:59;74596.31;;;-145.90;35.68
57562;BME280;43397;51.530;5.974;2023-04-24T11:41:25;74638.84;;;-145.90;35.32
57562;BME280;43397;51.530;5.974;2023-04-24T11:43:52;74644.94;;;-145.90;35.02
57562;BME280;43397;51.530;5.974;2023-04-24T11:46:20;74651.00;;;-145.90;35.29
57562;BME280;43397;51.530;5.974;2023-04-24T11:48:46;74732.06;;;-145.90;35.40
57562;BME280;43397;51.530;5.974;2023-04-24T11:51:13;74685.44;;;-145.90;35.29
57562;BME280;43397;51.530;5.974;2023-04-24T11:53:39;74634.81;;;-145.90;34.88
57562;BME280;43397;51.530;5.974;2023-04-24T11:56:05;74476.75;;;-145.90;34.43
57562;BME280;43397;51.530;5.974;2023-04-24T11:58:34;74565.91;;;-145.90;34.65
57562;BME280;43397;51.530;5.974;2023-04-24T12:01:00;74606.44;;;-145.90;35.19
57562;BME280;43397;51.530;5.974;2023-04-24T12:03:26;74576.03;;;-145.90;35.04
57562;BME280;43397;51.530;5.974;2023-04-24T12:05:51;74636.81;;;-145.90;34.78
57562;BME280;43397;51.530;5.974;2023-04-24T12:08:28;74651.00;;;-145.90;34.40
57562;BME280;43397;51.530;5.974;2023-04-24T12:10:53;74655.06;;;-145.90;35.29
57562;BME280;43397;51.530;5.974;2023-04-24T12:13:19;74624.66;;;-145.90;35.07
57562;BME280;43397;51.530;5.974;2023-04-24T12:15:45;74638.84;;;-145.90;34.69
57562;BME280;43397;51.530;5.974;2023-04-24T12:18:12;74620.63;;;-145.90;34.47
57562;BME280;43397;51.530;5.974;2023-04-24T12:20:37;74606.44;;;-145.90;33.96
57562;BME280;43397;51.530;5.974;2023-04-24T12:23:03;74608.47;;;-145.90;34.94
57562;BME280;43397;51.530;5.974;2023-04-24T12:25:32;74515.25;;;-145.90;34.17
57562;BME280;43397;51.530;5.974;2023-04-24T12:28:09;74628.72;;;-145.90;34.58
57562;BME280;43397;51.530;5.974;2023-04-24T12:30:39;74632.78;;;-145.90;34.83
57562;BME280;43397;51.530;5.974;2023-04-24T12:33:05;74622.66;;;-145.90;34.97
57562;BME280;43397;51.530;5.974;2023-04-24T12:35:32;74642.91;;;-145.90;34.86
57562;BME280;43397;51.530;5.974;2023-04-24T12:38:05;74663.16;;;-145.90;35.54
57562;BME280;43397;51.530;5.974;2023-04-24T12:40:32;74760.44;;;-145.90;36.46
57562;BME280;43397;51.530;5.974;2023-04-24T12:42:58;74790.81;;;-145.90;37.02
57562;BME280;43397;51.530;5.974;2023-04-24T12:45:23;74823.25;;;-145.90;37.68
57562;BME280;43397;51.530;5.974;2023-04-24T12:47:49;74809.06;;;-145.90;36.67
57562;BME280;43397;51.530;5.974;2023-04-24T12:50:15;74786.78;;;-145.90;36.93
57562;BME280;43397;51.530;5.974;2023-04-24T12:52:42;74849.59;;;-145.90;37.36
57562;BME280;43397;51.530;5.974;2023-04-24T12:55:08;74725.97;;;-145.90;36.94
57562;BME280;43397;51.530;5.974;2023-04-24T12:57:38;74764.47;;;-145.90;36.49
57562;BME280;43397;51.530;5.974;2023-04-24T13:00:06;74608.47;;;-145.90;36.37
57562;BME280;43397;51.530;5.974;2023-04-24T13:02:33;74565.91;;;-145.90;35.78
57562;BME280;43397;51.530;5.974;2023-04-24T13:04:59;74517.28;;;-145.90;35.58
57562;BME280;43397;51.530;5.974;2023-04-24T13:07:26;74592.25;;;-145.90;34.47
57562;BME280;43397;51.530;5.974;2023-04-24T13:09:52;74519.31;;;-145.90;34.20
57562;BME280;43397;51.530;5.974;2023-04-24T13:12:18;74661.13;;;-145.90;35.54
57562;BME280;43397;51.530;5.974;2023-04-24T13:14:46;74762.44;;;-145.90;35.49
57562;BME280;43397;51.530;5.974;2023-04-24T13:17:12;74798.94;;;-145.90;37.21
57562;BME280;43397;51.530;5.974;2023-04-24T13:19:40;74807.03;;;-145.90;36.91
57562;BME280;43397;51.530;5.974;2023-04-24T13:22:08;74798.94;;;-145.90;35.43
57562;BME280;43397;51.530;5.974;2023-04-24T13:24:34;74886.06;;;-145.90;36.97
57562;BME280;43397;51.530;5.974;2023-04-24T13:27:00;74819.19;;;-145.90;36.01
57562;BME280;43397;51.530;5.974;2023-04-24T13:29:26;74805.00;;;-145.90;35.45
57562;BME280;43397;51.530;5.974;2023-04-24T13:31:54;74855.66;;;-145.90;35.94
57562;BME280;43397;51.530;5.974;2023-04-24T13:34:19;74898.22;;;-145.90;36.23
57562;BME280;43397;51.530;5.974;2023-04-24T13:36:45;74857.69;;;-145.90;36.65
57562;BME280;43397;51.530;5.974;2023-04-24T13:39:11;74932.66;;;-145.90;36.78
57562;BME280;43397;51.530;5.974;2023-04-24T13:41:36;74916.44;;;-145.90;37.92
57562;BME280;43397;51.530;5.974;2023-04-24T13:44:02;74922.53;;;-145.90;37.84
57562;BME280;43397;51.530;5.974;2023-04-24T13:46:28;75052.22;;;-145.90;39.30
57562;BME280;43397;51.530;5.974;2023-04-24T13:48:55;75127.19;;;-145.90;40.47
57562;BME280;43397;51.530;5.974;2023-04-24T13:51:21;74875.91;;;-145.90;37.70
57562;BME280;43397;51.530;5.974;2023-04-24T13:53:47;74837.41;;;-145.90;37.48
57562;BME280;43397;51.530;5.974;2023-04-24T13:56:12;74863.75;;;-145.90;37.62
57562;BME280;43397;51.530;5.974;2023-04-24T13:58:38;74914.44;;;-145.90;37.44
57562;BME280;43397;51.530;5.974;2023-04-24T14:01:04;74944.81;;;-145.90;38.23
57562;BME280;43397;51.530;5.974;2023-04-24T14:03:30;74857.69;;;-145.90;37.13
57562;BME280;43397;51.530;5.974;2023-04-24T14:05:57;74786.78;;;-145.90;36.96
57562;BME280;43397;51.530;5.974;2023-04-24T14:08:22;74697.63;;;-145.90;35.84
57562;BME280;43397;51.530;5.974;2023-04-24T14:10:48;74728.00;;;-145.90;36.38
57562;BME280;43397;51.530;5.974;2023-04-24T14:13:14;74768.53;;;-145.90;36.09
57562;BME280;43397;51.530;5.974;2023-04-24T14:15:39;74865.78;;;-145.90;37.10
57562;BME280;43397;51.530;5.974;2023-04-24T14:18:05;74758.41;;;-145.90;36.63
57562;BME280;43397;51.530;5.974;2023-04-24T14:20:31;74792.84;;;-145.90;36.42
57562;BME280;43397;51.530;5.974;2023-04-24T14:22:58;74790.81;;;-145.90;35.84
57562;BME280;43397;51.530;5.974;2023-04-24T14:25:23;74930.63;;;-145.90;37.38
57562;BME280;43397;51.530;5.974;2023-04-24T14:27:49;74924.56;;;-145.90;38.33
57562;BME280;43397;51.530;5.974;2023-04-24T14:30:15;74778.66;;;-145.90;37.24
57562;BME280;43397;51.530;5.974;2023-04-24T14:32:40;74707.75;;;-145.90;36.64
57562;BME280;43397;51.530;5.974;2023-04-24T14:35:07;74717.88;;;-145.90;36.72
57562;BME280;43397;51.530;5.974;2023-04-24T14:37:33;74788.78;;;-145.90;37.08
57562;BME280;43397;51.530;5.974;2023-04-24T14:40:00;74746.25;;;-145.90;36.68
57562;BME280;43397;51.530;5.974;2023-04-24T14:42:25;74774.59;;;-145.90;37.20
57562;BME280;43397;51.530;5.974;2023-04-24T14:44:51;74871.88;;;-145.90;38.06
57562;BME280;43397;51.530;5.974;2023-04-24T14:47:17;74896.19;;;-145.90;38.77
57562;BME280;43397;51.530;5.974;2023-04-24T14:49:42;74792.84;;;-145.90;38.00
57562;BME280;43397;51.530;5.974;2023-04-24T14:52:08;74847.56;;;-145.90;38.17
57562;BME280;43397;51.530;5.974;2023-04-24T14:54:34;74802.97;;;-145.90;37.53
57562;BME280;43397;51.530;5.974;2023-04-24T14:57:01;74882.00;;;-145.90;38.06
57562;BME280;43397;51.530;5.974;2023-04-24T14:59:27;74817.16;;;-145.90;37.38
57562;BME280;43397;51.530;5.974;2023-04-24T15:01:52;74711.78;;;-145.90;36.82
57562;BME280;43397;51.530;5.974;2023-04-24T15:04:18;74802.97;;;-145.90;36.88
57562;BME280;43397;51.530;5.974;2023-04-24T15:06:44;74792.84;;;-145.90;36.24
57562;BME280;43397;51.530;5.974;2023-04-24T15:09:09;74780.69;;;-145.90;35.96
57562;BME280;43397;51.530;5.974;2023-04-24T15:11:36;74879.97;;;-145.90;37.08
57562;BME280;43397;51.530;5.974;2023-04-24T15:14:03;74802.97;;;-145.90;35.63